This is the latest recevied weather packets stored in our database for station/object KB4NWJ. If no packets are shown the sender has not sent any weather packets the latest 10 day(s).
| Time | Temp. | Humidity | Pressure | Rain* | Wind** | Luminosity | Snow |
|---|---|---|---|---|---|---|---|
| 1777051112 | 27.22° C | 44% | 1014.6 hPa | 0 mm | - | 628 W/m² | - |
| 1777050802 | 27.22° C | 45% | 1014.7 hPa | 0 mm | - | 569 W/m² | - |
| 1777050497 | 26.67° C | 47% | 1014.7 hPa | 0 mm | - | 626 W/m² | - |
| 1777050196 | 26.11° C | 46% | 1015 hPa | 0 mm | - | 292 W/m² | - |
| 1777049892 | 27.22° C | 44% | 1014.9 hPa | 0 mm | - | 774 W/m² | - |
| 1777049587 | 27.22° C | 45% | 1015 hPa | 0 mm | - | 788 W/m² | - |
| 1777049285 | 26.11° C | 49% | 1015 hPa | 0 mm | - | 783 W/m² | - |
| 1777048982 | 26.11° C | 47% | 1015.1 hPa | 0 mm | - | 273 W/m² | - |
| 1777048681 | 26.67° C | 45% | 1015.2 hPa | 0 mm | - | 718 W/m² | - |
| 1777048377 | 25.56° C | 47% | 1015.3 hPa | 0 mm | - | 731 W/m² | - |
| 1777048076 | 26.67° C | 46% | 1015.3 hPa | 0 mm | - | 784 W/m² | - |
| 1777047773 | 26.67° C | 47% | 1015.4 hPa | 0 mm | - | 683 W/m² | - |
| 1777047469 | 26.67° C | 51% | 1015.6 hPa | 0 mm | - | 829 W/m² | - |
| 1777047164 | 26.67° C | 54% | 1015.5 hPa | 0 mm | - | 787 W/m² | - |
| 1777046861 | 26.11° C | 54% | 1015.5 hPa | 0 mm | - | 749 W/m² | - |
| 1777046557 | 25° C | 54% | 1015.7 hPa | 0 mm | - | 753 W/m² | - |
| 1777046252 | 26.11° C | 54% | 1015.5 hPa | 0 mm | - | 278 W/m² | - |
| 1777045948 | 24.44° C | 54% | 1015.8 hPa | 0 mm | - | 928 W/m² | - |
| 1777045645 | 24.44° C | 56% | 1015.9 hPa | 0 mm | - | 311 W/m² | - |
| 1777045341 | 25° C | 58% | 1015.9 hPa | 0 mm | - | 305 W/m² | - |
| 1777045036 | 25° C | 55% | 1015.9 hPa | 0 mm | - | 931 W/m² | - |
| 1777044732 | 25.56° C | 53% | 1015.8 hPa | 0 mm | - | 386 W/m² | - |
| 1777044429 | 25.56° C | 54% | 1015.7 hPa | 0 mm | - | 420 W/m² | - |
| 1777044124 | 24.44° C | 55% | 1016 hPa | 0 mm | - | 500 W/m² | - |
| 1777043821 | 25° C | 56% | 1015.9 hPa | 0 mm | - | 402 W/m² | - |
* Rain latest hour (hover to see other rain measurements)
** Current wind speed in m/s (hover to see current wind gust speed)